sensor_id;sensor_type;location;lat;lon;timestamp;P1;durP1;ratioP1;P2;durP2;ratioP2
20814;SDS011;10568;48.176;16.316;2023-04-24T00:00:57;4.77;;;3.00;;
20814;SDS011;10568;48.176;16.316;2023-04-24T00:03:26;3.77;;;2.97;;
20814;SDS011;10568;48.176;16.316;2023-04-24T00:05:54;2.93;;;2.40;;
20814;SDS011;10568;48.176;16.316;2023-04-24T00:08:20;3.03;;;2.23;;
20814;SDS011;10568;48.176;16.316;2023-04-24T00:10:47;2.90;;;2.60;;
20814;SDS011;10568;48.176;16.316;2023-04-24T00:13:13;3.03;;;2.33;;
20814;SDS011;10568;48.176;16.316;2023-04-24T00:15:39;4.43;;;2.83;;
20814;SDS011;10568;48.176;16.316;2023-04-24T00:18:05;3.53;;;2.70;;
20814;SDS011;10568;48.176;16.316;2023-04-24T00:20:30;3.47;;;2.50;;
20814;SDS011;10568;48.176;16.316;2023-04-24T00:23:00;3.73;;;2.70;;
20814;SDS011;10568;48.176;16.316;2023-04-24T00:25:26;3.13;;;2.50;;
20814;SDS011;10568;48.176;16.316;2023-04-24T00:27:52;2.87;;;2.57;;
20814;SDS011;10568;48.176;16.316;2023-04-24T00:30:17;3.30;;;2.43;;
20814;SDS011;10568;48.176;16.316;2023-04-24T00:32:55;3.47;;;2.73;;
20814;SDS011;10568;48.176;16.316;2023-04-24T00:35:22;3.47;;;2.30;;
20814;SDS011;10568;48.176;16.316;2023-04-24T00:37:48;4.13;;;2.67;;
20814;SDS011;10568;48.176;16.316;2023-04-24T00:40:14;3.20;;;2.63;;
20814;SDS011;10568;48.176;16.316;2023-04-24T00:42:41;3.93;;;2.90;;
20814;SDS011;10568;48.176;16.316;2023-04-24T00:45:08;4.37;;;2.70;;
20814;SDS011;10568;48.176;16.316;2023-04-24T00:47:34;3.67;;;2.63;;
20814;SDS011;10568;48.176;16.316;2023-04-24T00:50:01;2.90;;;2.57;;
20814;SDS011;10568;48.176;16.316;2023-04-24T00:52:29;3.73;;;3.00;;
20814;SDS011;10568;48.176;16.316;2023-04-24T00:54:57;3.50;;;2.70;;
20814;SDS011;10568;48.176;16.316;2023-04-24T00:57:23;2.90;;;2.47;;
20814;SDS011;10568;48.176;16.316;2023-04-24T00:59:50;2.93;;;2.20;;
20814;SDS011;10568;48.176;16.316;2023-04-24T01:02:18;2.80;;;2.37;;
20814;SDS011;10568;48.176;16.316;2023-04-24T01:04:46;3.73;;;3.03;;
20814;SDS011;10568;48.176;16.316;2023-04-24T01:07:11;3.63;;;2.77;;
20814;SDS011;10568;48.176;16.316;2023-04-24T01:09:38;3.53;;;2.57;;
20814;SDS011;10568;48.176;16.316;2023-04-24T01:12:08;4.37;;;2.97;;
20814;SDS011;10568;48.176;16.316;2023-04-24T01:14:35;3.00;;;2.50;;
20814;SDS011;10568;48.176;16.316;2023-04-24T01:17:01;4.20;;;3.00;;
20814;SDS011;10568;48.176;16.316;2023-04-24T01:19:27;4.77;;;3.20;;
20814;SDS011;10568;48.176;16.316;2023-04-24T01:21:53;4.20;;;3.07;;
20814;SDS011;10568;48.176;16.316;2023-04-24T01:24:21;4.20;;;3.10;;
20814;SDS011;10568;48.176;16.316;2023-04-24T01:26:47;3.77;;;2.60;;
20814;SDS011;10568;48.176;16.316;2023-04-24T01:29:13;3.97;;;2.63;;
20814;SDS011;10568;48.176;16.316;2023-04-24T01:31:39;4.00;;;2.73;;
20814;SDS011;10568;48.176;16.316;2023-04-24T01:34:05;5.37;;;3.00;;
20814;SDS011;10568;48.176;16.316;2023-04-24T01:36:32;6.03;;;3.07;;
20814;SDS011;10568;48.176;16.316;2023-04-24T01:39:00;5.10;;;3.17;;
20814;SDS011;10568;48.176;16.316;2023-04-24T01:41:26;4.10;;;3.10;;
20814;SDS011;10568;48.176;16.316;2023-04-24T01:43:52;4.10;;;2.90;;
20814;SDS011;10568;48.176;16.316;2023-04-24T01:46:19;5.33;;;2.67;;
20814;SDS011;10568;48.176;16.316;2023-04-24T01:48:45;5.80;;;2.53;;
20814;SDS011;10568;48.176;16.316;2023-04-24T01:51:11;3.03;;;2.67;;
20814;SDS011;10568;48.176;16.316;2023-04-24T01:53:36;3.43;;;2.73;;
20814;SDS011;10568;48.176;16.316;2023-04-24T01:56:02;3.87;;;2.97;;
20814;SDS011;10568;48.176;16.316;2023-04-24T01:58:28;5.80;;;3.50;;
20814;SDS011;10568;48.176;16.316;2023-04-24T02:00:58;4.03;;;2.97;;
20814;SDS011;10568;48.176;16.316;2023-04-24T02:03:25;4.63;;;2.90;;
20814;SDS011;10568;48.176;16.316;2023-04-24T02:05:51;5.10;;;2.53;;
20814;SDS011;10568;48.176;16.316;2023-04-24T02:08:17;3.67;;;2.50;;
20814;SDS011;10568;48.176;16.316;2023-04-24T02:10:43;3.10;;;2.23;;
20814;SDS011;10568;48.176;16.316;2023-04-24T02:13:09;3.33;;;2.43;;
20814;SDS011;10568;48.176;16.316;2023-04-24T02:15:35;3.07;;;2.30;;
20814;SDS011;10568;48.176;16.316;2023-04-24T02:18:01;2.73;;;2.23;;
20814;SDS011;10568;48.176;16.316;2023-04-24T02:20:27;3.93;;;2.33;;
20814;SDS011;10568;48.176;16.316;2023-04-24T02:22:52;3.30;;;2.30;;
20814;SDS011;10568;48.176;16.316;2023-04-24T02:25:18;4.40;;;2.47;;
20814;SDS011;10568;48.176;16.316;2023-04-24T02:27:44;3.17;;;2.37;;
20814;SDS011;10568;48.176;16.316;2023-04-24T02:30:10;3.87;;;2.30;;
20814;SDS011;10568;48.176;16.316;2023-04-24T02:32:36;2.93;;;2.13;;
20814;SDS011;10568;48.176;16.316;2023-04-24T02:35:02;2.63;;;2.20;;
20814;SDS011;10568;48.176;16.316;2023-04-24T02:37:28;2.67;;;2.20;;
20814;SDS011;10568;48.176;16.316;2023-04-24T02:39:53;3.30;;;2.50;;
20814;SDS011;10568;48.176;16.316;2023-04-24T02:42:19;3.97;;;2.13;;
20814;SDS011;10568;48.176;16.316;2023-04-24T02:44:45;3.67;;;2.40;;
20814;SDS011;10568;48.176;16.316;2023-04-24T02:47:11;4.23;;;2.10;;
20814;SDS011;10568;48.176;16.316;2023-04-24T02:49:37;2.57;;;2.10;;
20814;SDS011;10568;48.176;16.316;2023-04-24T02:52:03;3.63;;;1.93;;
20814;SDS011;10568;48.176;16.316;2023-04-24T02:54:28;3.13;;;1.80;;
20814;SDS011;10568;48.176;16.316;2023-04-24T02:56:54;2.50;;;1.80;;
20814;SDS011;10568;48.176;16.316;2023-04-24T02:59:20;2.83;;;2.10;;
20814;SDS011;10568;48.176;16.316;2023-04-24T03:01:46;3.60;;;1.90;;
20814;SDS011;10568;48.176;16.316;2023-04-24T03:04:11;3.20;;;2.03;;
20814;SDS011;10568;48.176;16.316;2023-04-24T03:06:37;2.27;;;1.70;;
20814;SDS011;10568;48.176;16.316;2023-04-24T03:09:04;3.20;;;1.97;;
20814;SDS011;10568;48.176;16.316;2023-04-24T03:11:30;2.53;;;1.90;;
20814;SDS011;10568;48.176;16.316;2023-04-24T03:13:55;2.73;;;1.90;;
20814;SDS011;10568;48.176;16.316;2023-04-24T03:16:21;2.90;;;2.03;;
20814;SDS011;10568;48.176;16.316;2023-04-24T03:18:47;2.33;;;1.73;;
20814;SDS011;10568;48.176;16.316;2023-04-24T03:21:13;2.40;;;1.87;;
20814;SDS011;10568;48.176;16.316;2023-04-24T03:23:38;2.20;;;1.93;;
20814;SDS011;10568;48.176;16.316;2023-04-24T03:26:04;3.03;;;1.73;;
20814;SDS011;10568;48.176;16.316;2023-04-24T03:28:30;2.57;;;1.80;;
20814;SDS011;10568;48.176;16.316;2023-04-24T03:30:56;2.70;;;1.83;;
20814;SDS011;10568;48.176;16.316;2023-04-24T03:33:22;2.60;;;1.47;;
20814;SDS011;10568;48.176;16.316;2023-04-24T03:35:47;1.60;;;1.40;;
20814;SDS011;10568;48.176;16.316;2023-04-24T03:38:13;1.60;;;1.47;;
20814;SDS011;10568;48.176;16.316;2023-04-24T03:40:39;1.93;;;1.40;;
20814;SDS011;10568;48.176;16.316;2023-04-24T03:43:05;2.70;;;1.60;;
20814;SDS011;10568;48.176;16.316;2023-04-24T03:45:30;1.73;;;1.47;;
20814;SDS011;10568;48.176;16.316;2023-04-24T03:47:56;1.87;;;1.70;;
20814;SDS011;10568;48.176;16.316;2023-04-24T03:50:22;2.10;;;1.77;;
20814;SDS011;10568;48.176;16.316;2023-04-24T03:52:48;2.43;;;1.43;;
20814;SDS011;10568;48.176;16.316;2023-04-24T03:55:14;1.93;;;1.50;;
20814;SDS011;10568;48.176;16.316;2023-04-24T03:57:41;2.03;;;1.80;;
20814;SDS011;10568;48.176;16.316;2023-04-24T04:00:12;1.83;;;1.63;;
20814;SDS011;10568;48.176;16.316;2023-04-24T04:02:39;1.67;;;1.53;;
20814;SDS011;10568;48.176;16.316;2023-04-24T04:05:05;2.47;;;1.50;;
20814;SDS011;10568;48.176;16.316;2023-04-24T04:07:31;2.27;;;1.87;;
20814;SDS011;10568;48.176;16.316;2023-04-24T04:09:57;1.87;;;1.47;;
20814;SDS011;10568;48.176;16.316;2023-04-24T04:12:22;2.17;;;1.57;;
20814;SDS011;10568;48.176;16.316;2023-04-24T04:18:10;1.53;;;1.33;;
20814;SDS011;10568;48.176;16.316;2023-04-24T04:20:36;2.07;;;1.70;;
20814;SDS011;10568;48.176;16.316;2023-04-24T04:23:01;1.63;;;1.47;;
20814;SDS011;10568;48.176;16.316;2023-04-24T04:25:27;1.80;;;1.50;;
20814;SDS011;10568;48.176;16.316;2023-04-24T04:27:54;2.27;;;1.80;;
20814;SDS011;10568;48.176;16.316;2023-04-24T04:30:20;2.20;;;1.57;;
20814;SDS011;10568;48.176;16.316;2023-04-24T04:32:46;2.03;;;1.57;;
20814;SDS011;10568;48.176;16.316;2023-04-24T04:35:12;4.77;;;1.70;;
20814;SDS011;10568;48.176;16.316;2023-04-24T04:37:37;1.97;;;1.53;;
20814;SDS011;10568;48.176;16.316;2023-04-24T04:40:05;2.47;;;1.60;;
20814;SDS011;10568;48.176;16.316;2023-04-24T04:42:32;1.33;;;1.10;;
20814;SDS011;10568;48.176;16.316;2023-04-24T04:45:01;1.67;;;1.17;;
20814;SDS011;10568;48.176;16.316;2023-04-24T04:47:27;2.13;;;1.40;;
20814;SDS011;10568;48.176;16.316;2023-04-24T04:49:53;1.87;;;1.43;;
20814;SDS011;10568;48.176;16.316;2023-04-24T04:52:19;1.77;;;1.13;;
20814;SDS011;10568;48.176;16.316;2023-04-24T04:54:49;2.23;;;1.53;;
20814;SDS011;10568;48.176;16.316;2023-04-24T04:57:15;1.63;;;1.37;;
20814;SDS011;10568;48.176;16.316;2023-04-24T04:59:41;2.03;;;1.30;;
20814;SDS011;10568;48.176;16.316;2023-04-24T05:02:07;1.63;;;1.23;;
20814;SDS011;10568;48.176;16.316;2023-04-24T05:04:33;1.63;;;1.47;;
20814;SDS011;10568;48.176;16.316;2023-04-24T05:10:21;2.67;;;1.40;;
20814;SDS011;10568;48.176;16.316;2023-04-24T05:12:47;6.23;;;1.03;;
20814;SDS011;10568;48.176;16.316;2023-04-24T05:15:12;1.40;;;1.30;;
20814;SDS011;10568;48.176;16.316;2023-04-24T05:17:38;2.10;;;1.40;;
20814;SDS011;10568;48.176;16.316;2023-04-24T05:20:05;1.50;;;1.17;;
20814;SDS011;10568;48.176;16.316;2023-04-24T05:22:33;2.53;;;1.63;;
20814;SDS011;10568;48.176;16.316;2023-04-24T05:24:59;2.30;;;1.47;;
20814;SDS011;10568;48.176;16.316;2023-04-24T05:27:24;2.33;;;1.37;;
20814;SDS011;10568;48.176;16.316;2023-04-24T05:29:50;3.30;;;1.30;;
20814;SDS011;10568;48.176;16.316;2023-04-24T05:32:16;1.90;;;1.50;;
20814;SDS011;10568;48.176;16.316;2023-04-24T05:34:42;2.30;;;1.57;;
20814;SDS011;10568;48.176;16.316;2023-04-24T05:37:08;1.80;;;1.37;;
20814;SDS011;10568;48.176;16.316;2023-04-24T05:39:35;1.97;;;1.47;;
20814;SDS011;10568;48.176;16.316;2023-04-24T05:42:01;1.97;;;1.40;;
20814;SDS011;10568;48.176;16.316;2023-04-24T05:44:29;1.70;;;1.30;;
20814;SDS011;10568;48.176;16.316;2023-04-24T05:46:55;1.83;;;1.37;;
20814;SDS011;10568;48.176;16.316;2023-04-24T05:49:21;2.17;;;1.30;;
20814;SDS011;10568;48.176;16.316;2023-04-24T05:51:48;1.80;;;1.17;;
20814;SDS011;10568;48.176;16.316;2023-04-24T05:54:14;2.00;;;1.40;;
20814;SDS011;10568;48.176;16.316;2023-04-24T05:56:40;2.50;;;1.20;;
20814;SDS011;10568;48.176;16.316;2023-04-24T05:59:06;3.13;;;1.33;;
20814;SDS011;10568;48.176;16.316;2023-04-24T06:01:32;2.00;;;1.50;;
20814;SDS011;10568;48.176;16.316;2023-04-24T06:03:58;1.37;;;1.27;;
20814;SDS011;10568;48.176;16.316;2023-04-24T06:06:24;1.03;;;0.93;;
20814;SDS011;10568;48.176;16.316;2023-04-24T06:08:51;1.37;;;1.10;;
20814;SDS011;10568;48.176;16.316;2023-04-24T06:11:17;2.07;;;1.17;;
20814;SDS011;10568;48.176;16.316;2023-04-24T06:13:43;1.53;;;1.10;;
20814;SDS011;10568;48.176;16.316;2023-04-24T06:16:08;1.47;;;1.30;;
20814;SDS011;10568;48.176;16.316;2023-04-24T06:18:35;1.10;;;1.00;;
20814;SDS011;10568;48.176;16.316;2023-04-24T06:21:01;1.47;;;1.07;;
20814;SDS011;10568;48.176;16.316;2023-04-24T06:23:27;2.53;;;1.30;;
20814;SDS011;10568;48.176;16.316;2023-04-24T06:25:52;2.20;;;1.00;;
20814;SDS011;10568;48.176;16.316;2023-04-24T06:28:18;1.60;;;1.33;;
20814;SDS011;10568;48.176;16.316;2023-04-24T06:30:44;1.30;;;1.20;;
20814;SDS011;10568;48.176;16.316;2023-04-24T06:33:10;2.43;;;1.30;;
20814;SDS011;10568;48.176;16.316;2023-04-24T06:35:36;1.30;;;1.20;;
20814;SDS011;10568;48.176;16.316;2023-04-24T06:38:03;1.40;;;1.30;;
20814;SDS011;10568;48.176;16.316;2023-04-24T06:40:29;1.20;;;1.10;;
20814;SDS011;10568;48.176;16.316;2023-04-24T06:42:55;1.20;;;1.10;;
20814;SDS011;10568;48.176;16.316;2023-04-24T06:45:22;1.60;;;1.30;;
20814;SDS011;10568;48.176;16.316;2023-04-24T06:47:48;1.30;;;1.20;;
20814;SDS011;10568;48.176;16.316;2023-04-24T06:50:14;1.53;;;1.20;;
20814;SDS011;10568;48.176;16.316;2023-04-24T06:52:40;1.30;;;0.97;;
20814;SDS011;10568;48.176;16.316;2023-04-24T06:55:06;1.50;;;1.10;;
20814;SDS011;10568;48.176;16.316;2023-04-24T06:57:32;0.97;;;0.90;;
20814;SDS011;10568;48.176;16.316;2023-04-24T06:59:58;0.80;;;0.80;;
20814;SDS011;10568;48.176;16.316;2023-04-24T07:02:24;1.10;;;1.00;;
20814;SDS011;10568;48.176;16.316;2023-04-24T07:04:50;1.10;;;1.00;;
20814;SDS011;10568;48.176;16.316;2023-04-24T07:07:17;0.90;;;0.83;;
20814;SDS011;10568;48.176;16.316;2023-04-24T07:09:43;2.10;;;0.80;;
20814;SDS011;10568;48.176;16.316;2023-04-24T07:12:10;0.80;;;0.77;;
20814;SDS011;10568;48.176;16.316;2023-04-24T07:14:37;0.93;;;0.87;;
20814;SDS011;10568;48.176;16.316;2023-04-24T07:17:03;0.93;;;0.83;;
20814;SDS011;10568;48.176;16.316;2023-04-24T07:19:30;1.27;;;1.00;;
20814;SDS011;10568;48.176;16.316;2023-04-24T07:21:56;0.93;;;0.87;;
20814;SDS011;10568;48.176;16.316;2023-04-24T07:24:23;1.03;;;0.93;;
20814;SDS011;10568;48.176;16.316;2023-04-24T07:26:51;0.90;;;0.80;;
20814;SDS011;10568;48.176;16.316;2023-04-24T07:29:17;0.90;;;0.83;;
20814;SDS011;10568;48.176;16.316;2023-04-24T07:31:44;1.10;;;0.70;;
20814;SDS011;10568;48.176;16.316;2023-04-24T07:34:10;0.60;;;0.60;;
20814;SDS011;10568;48.176;16.316;2023-04-24T07:36:36;1.03;;;0.70;;
20814;SDS011;10568;48.176;16.316;2023-04-24T07:39:03;1.30;;;1.00;;
20814;SDS011;10568;48.176;16.316;2023-04-24T07:41:31;1.27;;;0.80;;
20814;SDS011;10568;48.176;16.316;2023-04-24T07:43:56;1.03;;;0.90;;
20814;SDS011;10568;48.176;16.316;2023-04-24T07:46:23;1.00;;;0.90;;
20814;SDS011;10568;48.176;16.316;2023-04-24T07:48:49;1.80;;;0.83;;
20814;SDS011;10568;48.176;16.316;2023-04-24T07:51:15;0.97;;;0.73;;
20814;SDS011;10568;48.176;16.316;2023-04-24T07:53:42;0.63;;;0.60;;
20814;SDS011;10568;48.176;16.316;2023-04-24T07:56:08;1.20;;;0.80;;
20814;SDS011;10568;48.176;16.316;2023-04-24T07:58:34;0.97;;;0.87;;
20814;SDS011;10568;48.176;16.316;2023-04-24T08:01:00;1.10;;;0.70;;
20814;SDS011;10568;48.176;16.316;2023-04-24T08:03:26;1.13;;;1.00;;
20814;SDS011;10568;48.176;16.316;2023-04-24T08:05:52;1.20;;;0.80;;
20814;SDS011;10568;48.176;16.316;2023-04-24T08:08:20;1.87;;;0.80;;
20814;SDS011;10568;48.176;16.316;2023-04-24T08:10:47;2.03;;;0.60;;
20814;SDS011;10568;48.176;16.316;2023-04-24T08:13:14;1.10;;;0.70;;
20814;SDS011;10568;48.176;16.316;2023-04-24T08:15:39;2.50;;;0.83;;
20814;SDS011;10568;48.176;16.316;2023-04-24T08:18:05;1.90;;;0.90;;
20814;SDS011;10568;48.176;16.316;2023-04-24T08:20:32;1.00;;;0.83;;
20814;SDS011;10568;48.176;16.316;2023-04-24T08:22:58;1.10;;;0.80;;
20814;SDS011;10568;48.176;16.316;2023-04-24T08:25:23;0.80;;;0.80;;
20814;SDS011;10568;48.176;16.316;2023-04-24T08:27:50;0.70;;;0.70;;
20814;SDS011;10568;48.176;16.316;2023-04-24T08:30:17;0.90;;;0.90;;
20814;SDS011;10568;48.176;16.316;2023-04-24T08:32:43;0.67;;;0.67;;
20814;SDS011;10568;48.176;16.316;2023-04-24T08:35:09;1.10;;;0.90;;
20814;SDS011;10568;48.176;16.316;2023-04-24T08:40:28;1.93;;;0.60;;
20814;SDS011;10568;48.176;16.316;2023-04-24T08:42:57;1.20;;;0.60;;
20814;SDS011;10568;48.176;16.316;2023-04-24T08:45:24;2.07;;;0.77;;
20814;SDS011;10568;48.176;16.316;2023-04-24T08:47:51;0.90;;;0.80;;
20814;SDS011;10568;48.176;16.316;2023-04-24T08:50:19;0.70;;;0.70;;
20814;SDS011;10568;48.176;16.316;2023-04-24T08:52:47;1.30;;;0.40;;
20814;SDS011;10568;48.176;16.316;2023-04-24T08:55:15;0.60;;;0.60;;
20814;SDS011;10568;48.176;16.316;2023-04-24T08:57:44;0.43;;;0.43;;
20814;SDS011;10568;48.176;16.316;2023-04-24T09:00:11;0.60;;;0.50;;
20814;SDS011;10568;48.176;16.316;2023-04-24T09:02:39;0.40;;;0.30;;
20814;SDS011;10568;48.176;16.316;2023-04-24T09:05:08;0.40;;;0.30;;
20814;SDS011;10568;48.176;16.316;2023-04-24T09:07:35;0.40;;;0.40;;
20814;SDS011;10568;48.176;16.316;2023-04-24T09:10:03;1.00;;;0.53;;
20814;SDS011;10568;48.176;16.316;2023-04-24T09:12:30;0.40;;;0.40;;
20814;SDS011;10568;48.176;16.316;2023-04-24T09:14:56;0.83;;;0.50;;
20814;SDS011;10568;48.176;16.316;2023-04-24T09:17:23;0.20;;;0.20;;
20814;SDS011;10568;48.176;16.316;2023-04-24T09:19:52;0.30;;;0.30;;
20814;SDS011;10568;48.176;16.316;2023-04-24T09:22:17;1.70;;;0.20;;
20814;SDS011;10568;48.176;16.316;2023-04-24T09:24:44;0.53;;;0.30;;
20814;SDS011;10568;48.176;16.316;2023-04-24T09:27:11;0.30;;;0.30;;
20814;SDS011;10568;48.176;16.316;2023-04-24T09:30:14;0.30;;;0.30;;
20814;SDS011;10568;48.176;16.316;2023-04-24T09:32:33;0.30;;;0.30;;
20814;SDS011;10568;48.176;16.316;2023-04-24T09:35:10;0.40;;;0.40;;
20814;SDS011;10568;48.176;16.316;2023-04-24T09:37:43;0.40;;;0.40;;
20814;SDS011;10568;48.176;16.316;2023-04-24T09:40:18;0.20;;;0.20;;
20814;SDS011;10568;48.176;16.316;2023-04-24T09:42:54;0.40;;;0.40;;
20814;SDS011;10568;48.176;16.316;2023-04-24T09:45:35;0.50;;;0.37;;
20814;SDS011;10568;48.176;16.316;2023-04-24T09:48:05;0.30;;;0.30;;
20814;SDS011;10568;48.176;16.316;2023-04-24T09:50:35;0.30;;;0.30;;
20814;SDS011;10568;48.176;16.316;2023-04-24T09:53:04;0.53;;;0.40;;
20814;SDS011;10568;48.176;16.316;2023-04-24T09:55:39;0.40;;;0.40;;
20814;SDS011;10568;48.176;16.316;2023-04-24T09:58:09;0.73;;;0.40;;
20814;SDS011;10568;48.176;16.316;2023-04-24T10:00:35;0.30;;;0.20;;
20814;SDS011;10568;48.176;16.316;2023-04-24T10:03:02;0.40;;;0.40;;
20814;SDS011;10568;48.176;16.316;2023-04-24T10:05:33;0.40;;;0.40;;
20814;SDS011;10568;48.176;16.316;2023-04-24T10:10:29;2.53;;;0.40;;
20814;SDS011;10568;48.176;16.316;2023-04-24T10:12:56;0.30;;;0.30;;
20814;SDS011;10568;48.176;16.316;2023-04-24T10:15:22;0.40;;;0.30;;
20814;SDS011;10568;48.176;16.316;2023-04-24T10:17:51;1.27;;;0.40;;
20814;SDS011;10568;48.176;16.316;2023-04-24T10:20:21;0.40;;;0.30;;
20814;SDS011;10568;48.176;16.316;2023-04-24T10:22:49;0.30;;;0.30;;
20814;SDS011;10568;48.176;16.316;2023-04-24T10:25:19;0.30;;;0.27;;
20814;SDS011;10568;48.176;16.316;2023-04-24T10:27:47;0.60;;;0.40;;
20814;SDS011;10568;48.176;16.316;2023-04-24T10:30:14;0.37;;;0.37;;
20814;SDS011;10568;48.176;16.316;2023-04-24T10:32:41;0.37;;;0.30;;
20814;SDS011;10568;48.176;16.316;2023-04-24T10:35:07;0.40;;;0.40;;
20814;SDS011;10568;48.176;16.316;2023-04-24T10:37:38;0.30;;;0.30;;
20814;SDS011;10568;48.176;16.316;2023-04-24T10:40:07;0.43;;;0.40;;
20814;SDS011;10568;48.176;16.316;2023-04-24T10:42:35;1.93;;;0.50;;
20814;SDS011;10568;48.176;16.316;2023-04-24T10:45:05;0.67;;;0.50;;
20814;SDS011;10568;48.176;16.316;2023-04-24T10:47:41;0.40;;;0.40;;
20814;SDS011;10568;48.176;16.316;2023-04-24T10:50:08;0.60;;;0.30;;
20814;SDS011;10568;48.176;16.316;2023-04-24T10:52:45;0.73;;;0.30;;
20814;SDS011;10568;48.176;16.316;2023-04-24T10:55:15;0.40;;;0.33;;
20814;SDS011;10568;48.176;16.316;2023-04-24T10:58:00;0.40;;;0.40;;
20814;SDS011;10568;48.176;16.316;2023-04-24T11:03:37;0.77;;;0.30;;
20814;SDS011;10568;48.176;16.316;2023-04-24T11:06:07;1.23;;;0.47;;
20814;SDS011;10568;48.176;16.316;2023-04-24T11:08:42;1.60;;;0.50;;
20814;SDS011;10568;48.176;16.316;2023-04-24T11:11:13;0.40;;;0.40;;
20814;SDS011;10568;48.176;16.316;2023-04-24T11:16:20;0.87;;;0.50;;
20814;SDS011;10568;48.176;16.316;2023-04-24T11:19:09;1.37;;;0.40;;
20814;SDS011;10568;48.176;16.316;2023-04-24T11:26:54;0.40;;;0.40;;
20814;SDS011;10568;48.176;16.316;2023-04-24T11:29:22;0.83;;;0.37;;
20814;SDS011;10568;48.176;16.316;2023-04-24T11:32:14;0.73;;;0.30;;
20814;SDS011;10568;48.176;16.316;2023-04-24T11:34:47;0.37;;;0.37;;
20814;SDS011;10568;48.176;16.316;2023-04-24T11:37:15;0.30;;;0.27;;
20814;SDS011;10568;48.176;16.316;2023-04-24T11:39:41;0.30;;;0.30;;
20814;SDS011;10568;48.176;16.316;2023-04-24T11:42:07;0.60;;;0.60;;
20814;SDS011;10568;48.176;16.316;2023-04-24T11:44:34;0.30;;;0.20;;
20814;SDS011;10568;48.176;16.316;2023-04-24T11:47:04;0.40;;;0.40;;
20814;SDS011;10568;48.176;16.316;2023-04-24T11:49:32;1.50;;;0.60;;
20814;SDS011;10568;48.176;16.316;2023-04-24T11:51:59;0.87;;;0.47;;
20814;SDS011;10568;48.176;16.316;2023-04-24T11:54:26;0.73;;;0.50;;
20814;SDS011;10568;48.176;16.316;2023-04-24T11:56:52;0.50;;;0.50;;
20814;SDS011;10568;48.176;16.316;2023-04-24T11:59:18;0.40;;;0.40;;
20814;SDS011;10568;48.176;16.316;2023-04-24T12:01:44;1.00;;;0.50;;
20814;SDS011;10568;48.176;16.316;2023-04-24T12:04:11;0.90;;;0.50;;
20814;SDS011;10568;48.176;16.316;2023-04-24T12:06:37;0.80;;;0.57;;
20814;SDS011;10568;48.176;16.316;2023-04-24T12:09:03;1.00;;;0.60;;
20814;SDS011;10568;48.176;16.316;2023-04-24T12:11:29;1.13;;;0.50;;
20814;SDS011;10568;48.176;16.316;2023-04-24T12:13:55;0.70;;;0.70;;
20814;SDS011;10568;48.176;16.316;2023-04-24T12:16:21;0.40;;;0.40;;
20814;SDS011;10568;48.176;16.316;2023-04-24T12:18:50;0.67;;;0.47;;
20814;SDS011;10568;48.176;16.316;2023-04-24T12:21:20;1.10;;;0.70;;
20814;SDS011;10568;48.176;16.316;2023-04-24T12:23:47;1.03;;;0.70;;
20814;SDS011;10568;48.176;16.316;2023-04-24T12:26:19;0.50;;;0.50;;
20814;SDS011;10568;48.176;16.316;2023-04-24T12:28:47;0.70;;;0.70;;
20814;SDS011;10568;48.176;16.316;2023-04-24T12:31:15;0.80;;;0.73;;
20814;SDS011;10568;48.176;16.316;2023-04-24T12:33:41;1.00;;;0.60;;
20814;SDS011;10568;48.176;16.316;2023-04-24T12:36:11;0.60;;;0.60;;
20814;SDS011;10568;48.176;16.316;2023-04-24T12:38:42;0.90;;;0.70;;
20814;SDS011;10568;48.176;16.316;2023-04-24T12:41:12;0.80;;;0.70;;
20814;SDS011;10568;48.176;16.316;2023-04-24T12:43:49;0.90;;;0.60;;
20814;SDS011;10568;48.176;16.316;2023-04-24T12:46:17;0.60;;;0.60;;
20814;SDS011;10568;48.176;16.316;2023-04-24T12:48:42;1.80;;;0.90;;
20814;SDS011;10568;48.176;16.316;2023-04-24T12:51:08;2.10;;;0.60;;
20814;SDS011;10568;48.176;16.316;2023-04-24T12:53:34;1.10;;;0.67;;
20814;SDS011;10568;48.176;16.316;2023-04-24T12:56:00;1.00;;;0.63;;
20814;SDS011;10568;48.176;16.316;2023-04-24T12:58:26;1.73;;;0.70;;
20814;SDS011;10568;48.176;16.316;2023-04-24T13:00:51;2.07;;;0.70;;
20814;SDS011;10568;48.176;16.316;2023-04-24T13:03:18;1.70;;;0.70;;
20814;SDS011;10568;48.176;16.316;2023-04-24T13:05:44;0.60;;;0.60;;
20814;SDS011;10568;48.176;16.316;2023-04-24T13:08:10;0.90;;;0.70;;
20814;SDS011;10568;48.176;16.316;2023-04-24T13:10:36;1.50;;;0.70;;
20814;SDS011;10568;48.176;16.316;2023-04-24T13:13:04;2.53;;;0.80;;
20814;SDS011;10568;48.176;16.316;2023-04-24T13:15:30;0.60;;;0.60;;
20814;SDS011;10568;48.176;16.316;2023-04-24T13:17:56;0.57;;;0.57;;
20814;SDS011;10568;48.176;16.316;2023-04-24T13:20:22;0.30;;;0.30;;
20814;SDS011;10568;48.176;16.316;2023-04-24T13:22:48;0.37;;;0.37;;
20814;SDS011;10568;48.176;16.316;2023-04-24T13:25:13;0.60;;;0.60;;
20814;SDS011;10568;48.176;16.316;2023-04-24T13:27:42;0.50;;;0.40;;
20814;SDS011;10568;48.176;16.316;2023-04-24T13:30:07;0.57;;;0.50;;
20814;SDS011;10568;48.176;16.316;2023-04-24T13:32:33;0.40;;;0.40;;
20814;SDS011;10568;48.176;16.316;2023-04-24T13:35:00;0.63;;;0.60;;
20814;SDS011;10568;48.176;16.316;2023-04-24T13:37:26;0.50;;;0.50;;
20814;SDS011;10568;48.176;16.316;2023-04-24T13:39:51;0.87;;;0.60;;
20814;SDS011;10568;48.176;16.316;2023-04-24T13:42:17;1.03;;;0.50;;
20814;SDS011;10568;48.176;16.316;2023-04-24T13:44:43;0.50;;;0.50;;
20814;SDS011;10568;48.176;16.316;2023-04-24T13:47:09;0.67;;;0.53;;
20814;SDS011;10568;48.176;16.316;2023-04-24T13:49:35;0.30;;;0.30;;
20814;SDS011;10568;48.176;16.316;2023-04-24T13:52:01;0.47;;;0.47;;
20814;SDS011;10568;48.176;16.316;2023-04-24T13:54:27;0.40;;;0.40;;
20814;SDS011;10568;48.176;16.316;2023-04-24T13:56:52;0.57;;;0.40;;
20814;SDS011;10568;48.176;16.316;2023-04-24T13:59:19;0.40;;;0.30;;
20814;SDS011;10568;48.176;16.316;2023-04-24T14:01:46;0.43;;;0.43;;
20814;SDS011;10568;48.176;16.316;2023-04-24T14:04:12;0.30;;;0.30;;
20814;SDS011;10568;48.176;16.316;2023-04-24T14:06:38;0.30;;;0.30;;
20814;SDS011;10568;48.176;16.316;2023-04-24T14:09:03;1.10;;;0.50;;
20814;SDS011;10568;48.176;16.316;2023-04-24T14:11:29;0.40;;;0.40;;
20814;SDS011;10568;48.176;16.316;2023-04-24T14:13:55;0.53;;;0.50;;
20814;SDS011;10568;48.176;16.316;2023-04-24T14:16:21;0.50;;;0.50;;
20814;SDS011;10568;48.176;16.316;2023-04-24T14:18:47;2.10;;;0.57;;
20814;SDS011;10568;48.176;16.316;2023-04-24T14:21:12;0.63;;;0.50;;
20814;SDS011;10568;48.176;16.316;2023-04-24T14:23:38;0.50;;;0.50;;
20814;SDS011;10568;48.176;16.316;2023-04-24T14:26:04;0.50;;;0.50;;
20814;SDS011;10568;48.176;16.316;2023-04-24T14:28:30;0.93;;;0.60;;
20814;SDS011;10568;48.176;16.316;2023-04-24T14:30:55;1.80;;;0.60;;
20814;SDS011;10568;48.176;16.316;2023-04-24T14:33:21;0.67;;;0.60;;
20814;SDS011;10568;48.176;16.316;2023-04-24T14:35:47;0.60;;;0.40;;
20814;SDS011;10568;48.176;16.316;2023-04-24T14:38:13;0.60;;;0.50;;
20814;SDS011;10568;48.176;16.316;2023-04-24T14:40:40;0.40;;;0.40;;
20814;SDS011;10568;48.176;16.316;2023-04-24T14:43:06;0.90;;;0.60;;
20814;SDS011;10568;48.176;16.316;2023-04-24T14:45:32;0.77;;;0.40;;
20814;SDS011;10568;48.176;16.316;2023-04-24T14:48:17;0.70;;;0.43;;
20814;SDS011;10568;48.176;16.316;2023-04-24T14:50:43;0.87;;;0.43;;
20814;SDS011;10568;48.176;16.316;2023-04-24T14:53:10;0.50;;;0.50;;
20814;SDS011;10568;48.176;16.316;2023-04-24T14:55:35;0.47;;;0.40;;